Terminal Aerodrome Forecast
Issued by NWS

Home | Current Version | Previous Version | Text Only | Print | Product List | Glossary On
Versions: 1 2 3 4 5 6 7 8 9 10 11 12 13
000
FTUS44 KJAN 171700
TAFHKS
TAF
KHKS 171729Z 1718/1818 09008KT P6SM BKN050
     FM180100 07005KT P6SM OVC040
     FM180500 05011KT P6SM OVC015=

USA.gov is the U.S. government's official web portal to all federal, state and local government web resources and services.